sensor_id;sensor_type;location;lat;lon;timestamp;pressure;altitude;pressure_sealevel;temperature;humidity
62126;BME280;48112;53.282;6.150;2023-02-13T00:00:32;103969.72;;;16.29;62.42
62126;BME280;48112;53.282;6.150;2023-02-13T00:01:35;103968.91;;;16.28;62.41
62126;BME280;48112;53.282;6.150;2023-02-13T00:02:37;103968.91;;;16.28;62.59
62126;BME280;48112;53.282;6.150;2023-02-13T00:03:39;103961.84;;;16.27;62.53
62126;BME280;48112;53.282;6.150;2023-02-13T00:04:41;103963.44;;;16.28;62.35
62126;BME280;48112;53.282;6.150;2023-02-13T00:05:48;103962.66;;;16.28;62.39
62126;BME280;48112;53.282;6.150;2023-02-13T00:06:50;103962.66;;;16.28;62.51
62126;BME280;48112;53.282;6.150;2023-02-13T00:07:52;103963.44;;;16.28;62.47
62126;BME280;48112;53.282;6.150;2023-02-13T00:08:54;103957.22;;;16.28;62.46
62126;BME280;48112;53.282;6.150;2023-02-13T00:09:56;103950.94;;;16.27;62.47
62126;BME280;48112;53.282;6.150;2023-02-13T00:10:58;103956.41;;;16.27;62.43
62126;BME280;48112;53.282;6.150;2023-02-13T00:12:00;103953.66;;;16.27;62.40
62126;BME280;48112;53.282;6.150;2023-02-13T00:13:02;103956.41;;;16.27;62.42
62126;BME280;48112;53.282;6.150;2023-02-13T00:14:05;103954.78;;;16.26;62.35
62126;BME280;48112;53.282;6.150;2023-02-13T00:15:07;103960.25;;;16.26;62.44
62126;BME280;48112;53.282;6.150;2023-02-13T00:16:09;103961.84;;;16.27;62.38
62126;BME280;48112;53.282;6.150;2023-02-13T00:17:11;103957.53;;;16.26;62.66
62126;BME280;48112;53.282;6.150;2023-02-13T00:18:14;103953.66;;;16.27;62.50
62126;BME280;48112;53.282;6.150;2023-02-13T00:19:16;103956.41;;;16.27;62.60
62126;BME280;48112;53.282;6.150;2023-02-13T00:20:19;103955.59;;;16.27;62.48
62126;BME280;48112;53.282;6.150;2023-02-13T00:21:22;103952.06;;;16.26;62.64
62126;BME280;48112;53.282;6.150;2023-02-13T00:22:24;103957.53;;;16.26;62.65
62126;BME280;48112;53.282;6.150;2023-02-13T00:23:27;103954.78;;;16.26;62.60
62126;BME280;48112;53.282;6.150;2023-02-13T00:24:31;103952.84;;;16.27;62.42
62126;BME280;48112;53.282;6.150;2023-02-13T00:25:32;103950.44;;;16.25;62.40
62126;BME280;48112;53.282;6.150;2023-02-13T00:26:35;103953.97;;;16.26;62.56
62126;BME280;48112;53.282;6.150;2023-02-13T00:27:37;103948.53;;;16.26;62.67
62126;BME280;48112;53.282;6.150;2023-02-13T00:28:39;103945.78;;;16.26;62.49
62126;BME280;48112;53.282;6.150;2023-02-13T00:29:41;103943.06;;;16.26;62.25
62126;BME280;48112;53.282;6.150;2023-02-13T00:30:44;103948.53;;;16.26;62.65
62126;BME280;48112;53.282;6.150;2023-02-13T00:31:46;103951.56;;;16.24;62.35
62126;BME280;48112;53.282;6.150;2023-02-13T00:32:49;103936.78;;;16.25;62.28
62126;BME280;48112;53.282;6.150;2023-02-13T00:33:51;103937.91;;;16.24;62.38
62126;BME280;48112;53.282;6.150;2023-02-13T00:34:53;103934.06;;;16.25;62.31
62126;BME280;48112;53.282;6.150;2023-02-13T00:36:01;103933.28;;;16.25;62.49
62126;BME280;48112;53.282;6.150;2023-02-13T00:37:05;103940.34;;;16.26;62.49
62126;BME280;48112;53.282;6.150;2023-02-13T00:38:06;103938.75;;;16.25;62.23
62126;BME280;48112;53.282;6.150;2023-02-13T00:39:09;103937.91;;;16.24;62.35
62126;BME280;48112;53.282;6.150;2023-02-13T00:40:11;103936.78;;;16.25;62.29
62126;BME280;48112;53.282;6.150;2023-02-13T00:41:14;103923.47;;;16.24;62.23
62126;BME280;48112;53.282;6.150;2023-02-13T00:42:17;103932.47;;;16.24;62.42
62126;BME280;48112;53.282;6.150;2023-02-13T00:43:20;103935.19;;;16.24;62.48
62126;BME280;48112;53.282;6.150;2023-02-13T00:44:22;103935.19;;;16.24;62.46
62126;BME280;48112;53.282;6.150;2023-02-13T00:45:25;103936.00;;;16.25;62.15
62126;BME280;48112;53.282;6.150;2023-02-13T00:46:26;103935.19;;;16.24;62.50
62126;BME280;48112;53.282;6.150;2023-02-13T00:47:29;103937.91;;;16.24;62.25
62126;BME280;48112;53.282;6.150;2023-02-13T00:48:32;103934.38;;;16.24;62.14
62126;BME280;48112;53.282;6.150;2023-02-13T00:49:35;103934.38;;;16.24;62.46
62126;BME280;48112;53.282;6.150;2023-02-13T00:50:36;103937.91;;;16.24;62.41
62126;BME280;48112;53.282;6.150;2023-02-13T00:51:39;103939.03;;;16.23;62.26
62126;BME280;48112;53.282;6.150;2023-02-13T00:52:42;103937.09;;;16.24;62.23
62126;BME280;48112;53.282;6.150;2023-02-13T00:53:46;103940.66;;;16.24;62.17
62126;BME280;48112;53.282;6.150;2023-02-13T00:54:49;103933.59;;;16.23;62.31
62126;BME280;48112;53.282;6.150;2023-02-13T00:55:51;103936.31;;;16.23;62.26
62126;BME280;48112;53.282;6.150;2023-02-13T00:56:53;103928.13;;;16.23;62.20
62126;BME280;48112;53.282;6.150;2023-02-13T00:57:56;103934.38;;;16.24;62.36
62126;BME280;48112;53.282;6.150;2023-02-13T00:58:57;103936.31;;;16.23;62.19
62126;BME280;48112;53.282;6.150;2023-02-13T01:00:01;103941.78;;;16.23;62.20
62126;BME280;48112;53.282;6.150;2023-02-13T01:01:03;103939.03;;;16.23;62.26
62126;BME280;48112;53.282;6.150;2023-02-13T01:02:05;103938.22;;;16.23;62.41
62126;BME280;48112;53.282;6.150;2023-02-13T01:03:07;103943.69;;;16.23;62.18
62126;BME280;48112;53.282;6.150;2023-02-13T01:04:10;103942.88;;;16.22;62.31
62126;BME280;48112;53.282;6.150;2023-02-13T01:05:13;103946.41;;;16.23;62.23
62126;BME280;48112;53.282;6.150;2023-02-13T01:06:16;103949.13;;;16.23;62.15
62126;BME280;48112;53.282;6.150;2023-02-13T01:07:17;103947.22;;;16.23;62.08
62126;BME280;48112;53.282;6.150;2023-02-13T01:08:21;103945.59;;;16.22;62.62
62126;BME280;48112;53.282;6.150;2023-02-13T01:09:23;103942.88;;;16.22;62.07
62126;BME280;48112;53.282;6.150;2023-02-13T01:10:26;103940.94;;;16.23;62.29
62126;BME280;48112;53.282;6.150;2023-02-13T01:11:28;103942.06;;;16.22;62.32
62126;BME280;48112;53.282;6.150;2023-02-13T01:12:34;103947.53;;;16.22;62.21
62126;BME280;48112;53.282;6.150;2023-02-13T01:13:36;103942.88;;;16.22;62.31
62126;BME280;48112;53.282;6.150;2023-02-13T01:14:38;103953.75;;;16.22;62.29
62126;BME280;48112;53.282;6.150;2023-02-13T01:15:40;103949.13;;;16.23;62.07
62126;BME280;48112;53.282;6.150;2023-02-13T01:16:45;103947.53;;;16.22;62.06
62126;BME280;48112;53.282;6.150;2023-02-13T01:17:47;103950.25;;;16.22;61.89
62126;BME280;48112;53.282;6.150;2023-02-13T01:18:50;103946.72;;;16.21;62.21
62126;BME280;48112;53.282;6.150;2023-02-13T01:19:52;103950.56;;;16.20;62.05
62126;BME280;48112;53.282;6.150;2023-02-13T01:20:55;103947.53;;;16.22;62.31
62126;BME280;48112;53.282;6.150;2023-02-13T01:21:58;103941.25;;;16.21;62.00
62126;BME280;48112;53.282;6.150;2023-02-13T01:23:01;103946.72;;;16.21;62.02
62126;BME280;48112;53.282;6.150;2023-02-13T01:24:04;103943.97;;;16.21;62.11
62126;BME280;48112;53.282;6.150;2023-02-13T01:25:09;103947.53;;;16.22;62.00
62126;BME280;48112;53.282;6.150;2023-02-13T01:26:15;103951.34;;;16.21;62.14
62126;BME280;48112;53.282;6.150;2023-02-13T01:27:18;103952.16;;;16.21;62.00
62126;BME280;48112;53.282;6.150;2023-02-13T01:28:20;103948.63;;;16.21;62.17
62126;BME280;48112;53.282;6.150;2023-02-13T01:29:23;103946.72;;;16.21;62.19
62126;BME280;48112;53.282;6.150;2023-02-13T01:30:25;103945.09;;;16.20;61.94
62126;BME280;48112;53.282;6.150;2023-02-13T01:31:28;103942.38;;;16.20;61.97
62126;BME280;48112;53.282;6.150;2023-02-13T01:32:31;103948.63;;;16.21;61.97
62126;BME280;48112;53.282;6.150;2023-02-13T01:33:33;103952.16;;;16.21;61.94
62126;BME280;48112;53.282;6.150;2023-02-13T01:34:36;103951.34;;;16.21;61.88
62126;BME280;48112;53.282;6.150;2023-02-13T01:35:38;103951.34;;;16.21;61.94
62126;BME280;48112;53.282;6.150;2023-02-13T01:36:43;103943.47;;;16.19;62.03
62126;BME280;48112;53.282;6.150;2023-02-13T01:37:44;103944.28;;;16.20;61.95
62126;BME280;48112;53.282;6.150;2023-02-13T01:38:47;103950.56;;;16.20;62.17
62126;BME280;48112;53.282;6.150;2023-02-13T01:39:50;103950.56;;;16.20;61.93
62126;BME280;48112;53.282;6.150;2023-02-13T01:40:54;103941.56;;;16.20;62.16
62126;BME280;48112;53.282;6.150;2023-02-13T01:41:56;103943.47;;;16.19;61.85
62126;BME280;48112;53.282;6.150;2023-02-13T01:42:59;103945.09;;;16.20;61.91
62126;BME280;48112;53.282;6.150;2023-02-13T01:44:01;103942.38;;;16.20;62.05
62126;BME280;48112;53.282;6.150;2023-02-13T01:45:04;103947.00;;;16.20;61.85
62126;BME280;48112;53.282;6.150;2023-02-13T01:46:06;103945.09;;;16.20;61.94
62126;BME280;48112;53.282;6.150;2023-02-13T01:47:09;103940.75;;;16.19;62.06
62126;BME280;48112;53.282;6.150;2023-02-13T01:48:12;103932.56;;;16.19;61.98
62126;BME280;48112;53.282;6.150;2023-02-13T01:49:20;103938.03;;;16.19;61.98
62126;BME280;48112;53.282;6.150;2023-02-13T01:50:31;103932.56;;;16.19;61.86
62126;BME280;48112;53.282;6.150;2023-02-13T01:51:35;103940.75;;;16.19;61.98
62126;BME280;48112;53.282;6.150;2023-02-13T01:52:39;103936.41;;;16.18;61.98
62126;BME280;48112;53.282;6.150;2023-02-13T01:53:44;103938.03;;;16.19;61.93
62126;BME280;48112;53.282;6.150;2023-02-13T01:54:47;103938.03;;;16.19;61.80
62126;BME280;48112;53.282;6.150;2023-02-13T01:55:52;103940.75;;;16.19;61.76
62126;BME280;48112;53.282;6.150;2023-02-13T01:56:56;103938.84;;;16.20;61.82
62126;BME280;48112;53.282;6.150;2023-02-13T01:58:09;103932.56;;;16.19;61.96
62126;BME280;48112;53.282;6.150;2023-02-13T01:59:16;103933.38;;;16.20;61.86
62126;BME280;48112;53.282;6.150;2023-02-13T02:00:20;103936.41;;;16.18;62.02
62126;BME280;48112;53.282;6.150;2023-02-13T02:01:23;103939.13;;;16.18;62.28
62126;BME280;48112;53.282;6.150;2023-02-13T02:02:28;103931.75;;;16.19;62.04
62126;BME280;48112;53.282;6.150;2023-02-13T02:03:34;103930.16;;;16.18;61.88
62126;BME280;48112;53.282;6.150;2023-02-13T02:04:42;103930.97;;;16.18;61.81
62126;BME280;48112;53.282;6.150;2023-02-13T02:05:50;103930.97;;;16.18;61.98
62126;BME280;48112;53.282;6.150;2023-02-13T02:06:54;103926.28;;;16.19;62.02
62126;BME280;48112;53.282;6.150;2023-02-13T02:08:00;103928.22;;;16.18;61.77
62126;BME280;48112;53.282;6.150;2023-02-13T02:09:05;103924.69;;;16.18;61.87
62126;BME280;48112;53.282;6.150;2023-02-13T02:10:10;103926.28;;;16.19;61.98
62126;BME280;48112;53.282;6.150;2023-02-13T02:11:19;103935.59;;;16.18;61.95
62126;BME280;48112;53.282;6.150;2023-02-13T02:12:25;103928.22;;;16.18;61.91
62126;BME280;48112;53.282;6.150;2023-02-13T02:13:28;103927.41;;;16.18;61.78
62126;BME280;48112;53.282;6.150;2023-02-13T02:14:36;103928.22;;;16.18;61.88
62126;BME280;48112;53.282;6.150;2023-02-13T02:15:41;103923.88;;;16.17;61.84
62126;BME280;48112;53.282;6.150;2023-02-13T02:16:43;103925.50;;;16.18;61.72
62126;BME280;48112;53.282;6.150;2023-02-13T02:17:46;103925.50;;;16.18;61.88
62126;BME280;48112;53.282;6.150;2023-02-13T02:18:47;103925.50;;;16.18;61.68
62126;BME280;48112;53.282;6.150;2023-02-13T02:19:52;103930.16;;;16.18;61.73
62126;BME280;48112;53.282;6.150;2023-02-13T02:21:19;103927.41;;;16.18;61.79
62126;BME280;48112;53.282;6.150;2023-02-13T02:25:17;103927.72;;;16.16;61.61
62126;BME280;48112;53.282;6.150;2023-02-13T02:28:05;103920.66;;;16.15;61.85
62126;BME280;48112;53.282;6.150;2023-02-13T02:29:23;103928.53;;;16.17;61.64
62126;BME280;48112;53.282;6.150;2023-02-13T02:30:38;103923.09;;;16.17;61.64
62126;BME280;48112;53.282;6.150;2023-02-13T02:33:10;103923.41;;;16.15;61.58
62126;BME280;48112;53.282;6.150;2023-02-13T02:34:17;103926.13;;;16.15;61.54
62126;BME280;48112;53.282;6.150;2023-02-13T02:35:26;103922.28;;;16.16;61.79
62126;BME280;48112;53.282;6.150;2023-02-13T02:36:34;103916.00;;;16.16;61.28
62126;BME280;48112;53.282;6.150;2023-02-13T02:37:45;103919.53;;;16.16;61.58
62126;BME280;48112;53.282;6.150;2023-02-13T02:38:55;103916.81;;;16.16;61.46
62126;BME280;48112;53.282;6.150;2023-02-13T02:40:06;103921.44;;;16.16;61.69
62126;BME280;48112;53.282;6.150;2023-02-13T02:41:12;103916.00;;;16.16;61.69
62126;BME280;48112;53.282;6.150;2023-02-13T02:42:39;103916.00;;;16.16;61.47
62126;BME280;48112;53.282;6.150;2023-02-13T02:43:46;103909.75;;;16.15;61.50
62126;BME280;48112;53.282;6.150;2023-02-13T02:44:53;103912.50;;;16.15;61.68
62126;BME280;48112;53.282;6.150;2023-02-13T02:46:00;103916.00;;;16.16;61.76
62126;BME280;48112;53.282;6.150;2023-02-13T02:47:08;103915.22;;;16.15;61.47
62126;BME280;48112;53.282;6.150;2023-02-13T02:48:31;103907.81;;;16.16;61.46
62126;BME280;48112;53.282;6.150;2023-02-13T02:49:59;103912.50;;;16.15;61.49
62126;BME280;48112;53.282;6.150;2023-02-13T02:51:06;103912.50;;;16.15;61.53
62126;BME280;48112;53.282;6.150;2023-02-13T02:52:12;103906.22;;;16.15;61.40
62126;BME280;48112;53.282;6.150;2023-02-13T02:53:21;103908.94;;;16.15;61.67
62126;BME280;48112;53.282;6.150;2023-02-13T02:54:28;103903.50;;;16.15;61.49
62126;BME280;48112;53.282;6.150;2023-02-13T02:55:51;103913.59;;;16.14;61.31
62126;BME280;48112;53.282;6.150;2023-02-13T02:56:59;103908.13;;;16.14;61.32
62126;BME280;48112;53.282;6.150;2023-02-13T02:58:05;103902.69;;;16.14;61.68
62126;BME280;48112;53.282;6.150;2023-02-13T02:59:35;103908.13;;;16.14;61.80
62126;BME280;48112;53.282;6.150;2023-02-13T03:00:56;103897.22;;;16.14;61.57
62126;BME280;48112;53.282;6.150;2023-02-13T03:02:18;103906.53;;;16.13;61.38
62126;BME280;48112;53.282;6.150;2023-02-13T03:03:45;103906.53;;;16.13;61.33
62126;BME280;48112;53.282;6.150;2023-02-13T03:05:07;103901.06;;;16.13;61.41
62126;BME280;48112;53.282;6.150;2023-02-13T03:06:36;103898.34;;;16.13;61.29
62126;BME280;48112;53.282;6.150;2023-02-13T03:07:40;103898.34;;;16.13;61.57
62126;BME280;48112;53.282;6.150;2023-02-13T03:08:42;103895.63;;;16.13;61.64
62126;BME280;48112;53.282;6.150;2023-02-13T03:10:03;103895.63;;;16.13;61.47
62126;BME280;48112;53.282;6.150;2023-02-13T03:11:23;103892.91;;;16.13;61.40
62126;BME280;48112;53.282;6.150;2023-02-13T03:12:44;103889.34;;;16.13;61.57
62126;BME280;48112;53.282;6.150;2023-02-13T03:14:06;103894.00;;;16.12;61.57
62126;BME280;48112;53.282;6.150;2023-02-13T03:15:10;103898.66;;;16.12;61.20
62126;BME280;48112;53.282;6.150;2023-02-13T03:16:14;103899.47;;;16.12;61.33
62126;BME280;48112;53.282;6.150;2023-02-13T03:17:36;103899.47;;;16.12;61.48
62126;BME280;48112;53.282;6.150;2023-02-13T03:19:12;103898.66;;;16.12;61.37
62126;BME280;48112;53.282;6.150;2023-02-13T03:20:39;103893.19;;;16.12;61.45
62126;BME280;48112;53.282;6.150;2023-02-13T03:22:02;103890.47;;;16.12;61.23
62126;BME280;48112;53.282;6.150;2023-02-13T03:23:26;103894.81;;;16.13;61.42
62126;BME280;48112;53.282;6.150;2023-02-13T03:24:32;103894.00;;;16.12;61.31
62126;BME280;48112;53.282;6.150;2023-02-13T03:25:41;103892.38;;;16.11;61.34
62126;BME280;48112;53.282;6.150;2023-02-13T03:26:48;103892.38;;;16.11;61.39
62126;BME280;48112;53.282;6.150;2023-02-13T03:27:56;103887.75;;;16.12;61.12
62126;BME280;48112;53.282;6.150;2023-02-13T03:29:19;103892.38;;;16.11;61.42
62126;BME280;48112;53.282;6.150;2023-02-13T03:30:46;103886.94;;;16.11;61.27
62126;BME280;48112;53.282;6.150;2023-02-13T03:31:51;103893.19;;;16.12;61.39
62126;BME280;48112;53.282;6.150;2023-02-13T03:33:05;103897.84;;;16.11;61.08
62126;BME280;48112;53.282;6.150;2023-02-13T03:34:11;103884.19;;;16.11;61.38
62126;BME280;48112;53.282;6.150;2023-02-13T03:35:20;103886.94;;;16.11;61.31
62126;BME280;48112;53.282;6.150;2023-02-13T03:36:44;103886.94;;;16.11;61.33
62126;BME280;48112;53.282;6.150;2023-02-13T03:38:08;103893.19;;;16.12;61.10
62126;BME280;48112;53.282;6.150;2023-02-13T03:39:14;103898.97;;;16.10;61.29
62126;BME280;48112;53.282;6.150;2023-02-13T03:40:21;103894.31;;;16.11;61.20
62126;BME280;48112;53.282;6.150;2023-02-13T03:41:24;103898.97;;;16.10;61.10
62126;BME280;48112;53.282;6.150;2023-02-13T03:42:29;103898.97;;;16.10;61.10
62126;BME280;48112;53.282;6.150;2023-02-13T03:43:34;103899.78;;;16.11;61.04
62126;BME280;48112;53.282;6.150;2023-02-13T03:44:41;103899.78;;;16.11;61.02
62126;BME280;48112;53.282;6.150;2023-02-13T03:45:45;103907.13;;;16.10;61.10
62126;BME280;48112;53.282;6.150;2023-02-13T03:46:58;103899.78;;;16.11;61.14
62126;BME280;48112;53.282;6.150;2023-02-13T03:48:01;103902.50;;;16.11;61.28
62126;BME280;48112;53.282;6.150;2023-02-13T03:49:10;103905.50;;;16.09;61.23
62126;BME280;48112;53.282;6.150;2023-02-13T03:50:34;103900.03;;;16.09;60.86
62126;BME280;48112;53.282;6.150;2023-02-13T03:51:39;103896.22;;;16.10;61.22
62126;BME280;48112;53.282;6.150;2023-02-13T03:52:45;103896.22;;;16.10;61.08
62126;BME280;48112;53.282;6.150;2023-02-13T03:53:50;103896.22;;;16.10;60.98
62126;BME280;48112;53.282;6.150;2023-02-13T03:54:54;103893.50;;;16.10;61.03
62126;BME280;48112;53.282;6.150;2023-02-13T03:56:15;103901.69;;;16.10;61.00
62126;BME280;48112;53.282;6.150;2023-02-13T03:57:39;103897.31;;;16.09;61.26
62126;BME280;48112;53.282;6.150;2023-02-13T03:59:01;103898.13;;;16.10;60.95
62126;BME280;48112;53.282;6.150;2023-02-13T04:00:18;103900.03;;;16.09;61.24
62126;BME280;48112;53.282;6.150;2023-02-13T04:01:23;103900.03;;;16.09;61.20
62126;BME280;48112;53.282;6.150;2023-02-13T04:02:29;103884.91;;;16.03;61.01
62126;BME280;48112;53.282;6.150;2023-02-13T04:03:32;103902.78;;;16.09;60.86
62126;BME280;48112;53.282;6.150;2023-02-13T04:04:39;103907.13;;;16.10;61.05
62126;BME280;48112;53.282;6.150;2023-02-13T04:05:46;103895.41;;;16.10;60.83
62126;BME280;48112;53.282;6.150;2023-02-13T04:06:51;103904.72;;;16.09;61.05
62126;BME280;48112;53.282;6.150;2023-02-13T04:07:54;103899.25;;;16.09;61.13
62126;BME280;48112;53.282;6.150;2023-02-13T04:08:57;103902.78;;;16.09;60.84
62126;BME280;48112;53.282;6.150;2023-02-13T04:09:59;103899.25;;;16.09;60.92
62126;BME280;48112;53.282;6.150;2023-02-13T04:11:06;103905.50;;;16.09;61.04
62126;BME280;48112;53.282;6.150;2023-02-13T04:12:12;103899.25;;;16.09;60.90
62126;BME280;48112;53.282;6.150;2023-02-13T04:13:17;103905.50;;;16.09;61.06
62126;BME280;48112;53.282;6.150;2023-02-13T04:14:24;103894.59;;;16.09;61.09
62126;BME280;48112;53.282;6.150;2023-02-13T04:15:28;103897.63;;;16.08;60.57
62126;BME280;48112;53.282;6.150;2023-02-13T04:16:32;103898.44;;;16.08;61.11
62126;BME280;48112;53.282;6.150;2023-02-13T04:17:37;103892.19;;;16.08;60.83
62126;BME280;48112;53.282;6.150;2023-02-13T04:18:41;103895.72;;;16.08;61.06
62126;BME280;48112;53.282;6.150;2023-02-13T04:19:44;103898.44;;;16.08;60.94
62126;BME280;48112;53.282;6.150;2023-02-13T04:20:47;103899.56;;;16.07;60.96
62126;BME280;48112;53.282;6.150;2023-02-13T04:21:53;103894.13;;;16.07;60.90
62126;BME280;48112;53.282;6.150;2023-02-13T04:22:56;103901.16;;;16.08;60.81
62126;BME280;48112;53.282;6.150;2023-02-13T04:23:58;103894.91;;;16.08;60.75
62126;BME280;48112;53.282;6.150;2023-02-13T04:25:00;103894.13;;;16.07;61.03
62126;BME280;48112;53.282;6.150;2023-02-13T04:26:04;103896.84;;;16.07;60.80
62126;BME280;48112;53.282;6.150;2023-02-13T04:27:06;103893.31;;;16.07;60.85
62126;BME280;48112;53.282;6.150;2023-02-13T04:28:09;103889.44;;;16.08;60.78
62126;BME280;48112;53.282;6.150;2023-02-13T04:29:11;103890.56;;;16.07;60.98
62126;BME280;48112;53.282;6.150;2023-02-13T04:30:14;103888.66;;;16.07;60.64
62126;BME280;48112;53.282;6.150;2023-02-13T04:31:15;103889.44;;;16.08;60.91
62126;BME280;48112;53.282;6.150;2023-02-13T04:32:18;103882.69;;;16.05;60.78
62126;BME280;48112;53.282;6.150;2023-02-13T04:33:20;103884.31;;;16.06;60.80
62126;BME280;48112;53.282;6.150;2023-02-13T04:34:22;103889.75;;;16.06;60.98
62126;BME280;48112;53.282;6.150;2023-02-13T04:35:24;103888.16;;;16.05;60.88
62126;BME280;48112;53.282;6.150;2023-02-13T04:36:28;103891.38;;;16.07;60.75
62126;BME280;48112;53.282;6.150;2023-02-13T04:37:29;103888.16;;;16.05;60.79
62126;BME280;48112;53.282;6.150;2023-02-13T04:38:32;103889.75;;;16.06;60.78
62126;BME280;48112;53.282;6.150;2023-02-13T04:39:34;103885.94;;;16.07;60.75
62126;BME280;48112;53.282;6.150;2023-02-13T04:40:36;103882.69;;;16.05;60.84
62126;BME280;48112;53.282;6.150;2023-02-13T04:41:38;103885.44;;;16.05;60.69
62126;BME280;48112;53.282;6.150;2023-02-13T04:42:40;103878.06;;;16.06;60.89
62126;BME280;48112;53.282;6.150;2023-02-13T04:43:42;103883.53;;;16.06;60.56
62126;BME280;48112;53.282;6.150;2023-02-13T04:44:45;103882.69;;;16.05;60.69
62126;BME280;48112;53.282;6.150;2023-02-13T04:45:47;103879.16;;;16.05;60.78
62126;BME280;48112;53.282;6.150;2023-02-13T04:46:49;103879.97;;;16.05;60.66
62126;BME280;48112;53.282;6.150;2023-02-13T04:47:52;103877.25;;;16.05;60.76
62126;BME280;48112;53.282;6.150;2023-02-13T04:48:54;103882.69;;;16.05;60.69
62126;BME280;48112;53.282;6.150;2023-02-13T04:49:56;103889.75;;;16.06;60.56
62126;BME280;48112;53.282;6.150;2023-02-13T04:50:58;103885.44;;;16.05;60.55
62126;BME280;48112;53.282;6.150;2023-02-13T04:52:02;103879.16;;;16.05;61.00
62126;BME280;48112;53.282;6.150;2023-02-13T04:53:04;103876.44;;;16.05;60.74
62126;BME280;48112;53.282;6.150;2023-02-13T04:54:06;103878.06;;;16.06;60.56
62126;BME280;48112;53.282;6.150;2023-02-13T04:55:08;103882.69;;;16.05;60.66
62126;BME280;48112;53.282;6.150;2023-02-13T04:56:11;103871.81;;;16.05;60.49
62126;BME280;48112;53.282;6.150;2023-02-13T04:57:13;103874.53;;;16.05;60.75
62126;BME280;48112;53.282;6.150;2023-02-13T04:58:15;103877.25;;;16.05;60.48
62126;BME280;48112;53.282;6.150;2023-02-13T04:59:17;103872.91;;;16.04;60.66
62126;BME280;48112;53.282;6.150;2023-02-13T05:00:20;103874.81;;;16.04;60.78
62126;BME280;48112;53.282;6.150;2023-02-13T05:01:22;103870.19;;;16.04;60.68
62126;BME280;48112;53.282;6.150;2023-02-13T05:02:25;103872.91;;;16.04;60.51
62126;BME280;48112;53.282;6.150;2023-02-13T05:03:26;103874.81;;;16.04;60.50
62126;BME280;48112;53.282;6.150;2023-02-13T05:04:29;103870.19;;;16.04;60.66
62126;BME280;48112;53.282;6.150;2023-02-13T05:05:31;103873.72;;;16.05;60.62
62126;BME280;48112;53.282;6.150;2023-02-13T05:06:33;103877.25;;;16.05;60.34
62126;BME280;48112;53.282;6.150;2023-02-13T05:07:36;103868.56;;;16.03;60.76
62126;BME280;48112;53.282;6.150;2023-02-13T05:08:39;103871.28;;;16.03;60.67
62126;BME280;48112;53.282;6.150;2023-02-13T05:09:41;103874.00;;;16.03;60.39
62126;BME280;48112;53.282;6.150;2023-02-13T05:10:43;103872.09;;;16.04;60.36
62126;BME280;48112;53.282;6.150;2023-02-13T05:11:45;103872.09;;;16.04;60.45
62126;BME280;48112;53.282;6.150;2023-02-13T05:12:47;103869.38;;;16.04;60.63
62126;BME280;48112;53.282;6.150;2023-02-13T05:13:49;103870.19;;;16.04;60.56
62126;BME280;48112;53.282;6.150;2023-02-13T05:14:52;103863.09;;;16.03;60.47
62126;BME280;48112;53.282;6.150;2023-02-13T05:15:53;103867.47;;;16.04;60.48
62126;BME280;48112;53.282;6.150;2023-02-13T05:16:56;103865.06;;;16.03;60.37
62126;BME280;48112;53.282;6.150;2023-02-13T05:17:58;103866.66;;;16.04;60.45
62126;BME280;48112;53.282;6.150;2023-02-13T05:19:00;103874.00;;;16.03;60.59
62126;BME280;48112;53.282;6.150;2023-02-13T05:20:02;103871.28;;;16.03;60.56
62126;BME280;48112;53.282;6.150;2023-02-13T05:21:05;103868.56;;;16.03;60.35
62126;BME280;48112;53.282;6.150;2023-02-13T05:22:25;103874.81;;;16.04;60.49
62126;BME280;48112;53.282;6.150;2023-02-13T05:23:46;103875.13;;;16.02;60.51
62126;BME280;48112;53.282;6.150;2023-02-13T05:24:48;103875.13;;;16.02;60.33
62126;BME280;48112;53.282;6.150;2023-02-13T05:25:50;103881.41;;;16.03;60.48
62126;BME280;48112;53.282;6.150;2023-02-13T05:26:52;103879.75;;;16.02;60.58
62126;BME280;48112;53.282;6.150;2023-02-13T05:27:54;103877.03;;;16.02;60.57
62126;BME280;48112;53.282;6.150;2023-02-13T05:28:56;103880.59;;;16.02;60.54
62126;BME280;48112;53.282;6.150;2023-02-13T05:30:16;103888.75;;;16.02;60.31
62126;BME280;48112;53.282;6.150;2023-02-13T05:31:19;103886.03;;;16.02;60.41
62126;BME280;48112;53.282;6.150;2023-02-13T05:32:21;103879.75;;;16.02;60.44
62126;BME280;48112;53.282;6.150;2023-02-13T05:33:23;103886.03;;;16.02;60.36
62126;BME280;48112;53.282;6.150;2023-02-13T05:34:26;103888.75;;;16.02;60.41
62126;BME280;48112;53.282;6.150;2023-02-13T05:35:29;103883.31;;;16.02;60.39
62126;BME280;48112;53.282;6.150;2023-02-13T05:36:30;103887.16;;;16.01;60.34
62126;BME280;48112;53.282;6.150;2023-02-13T05:37:33;103887.16;;;16.01;60.31
62126;BME280;48112;53.282;6.150;2023-02-13T05:38:34;103887.16;;;16.01;60.21
62126;BME280;48112;53.282;6.150;2023-02-13T05:39:38;103896.13;;;16.02;60.07
62126;BME280;48112;53.282;6.150;2023-02-13T05:40:40;103898.06;;;16.01;60.37
62126;BME280;48112;53.282;6.150;2023-02-13T05:41:43;103892.59;;;16.01;60.49
62126;BME280;48112;53.282;6.150;2023-02-13T05:42:44;103887.16;;;16.01;60.43
62126;BME280;48112;53.282;6.150;2023-02-13T05:43:47;103890.66;;;16.02;60.31
62126;BME280;48112;53.282;6.150;2023-02-13T05:44:49;103889.88;;;16.01;60.15
62126;BME280;48112;53.282;6.150;2023-02-13T05:45:59;103889.06;;;16.01;60.38
62126;BME280;48112;53.282;6.150;2023-02-13T05:47:01;103898.06;;;16.01;60.27
62126;BME280;48112;53.282;6.150;2023-02-13T05:48:05;103889.88;;;16.01;60.42
62126;BME280;48112;53.282;6.150;2023-02-13T05:49:07;103898.06;;;16.01;60.25
62126;BME280;48112;53.282;6.150;2023-02-13T05:50:11;103895.34;;;16.01;60.23